Allamuchy Township, New Jersey
Current Conditions -  °F | °C
As of 6:53 PM on Thursday 27 Nov 2014 (Local Time) from KSMQ Reporting Station
Clear Clear  
Wind Chill: 29°   Ceiling: Unl
Heat Index: 35°   Visibility: 10mi
Dew Point: 23°   Wind: 7mph
Humidity: 61%   Direction: 310°NW
Pressure: 30.04"   Gusts: NA
Location:  40.8661°N, 74.8361°W
Report Text: KSMQ 272353Z AUTO 31006KT 10SM CLR 02/M05 A3004 RMK AO2 SLP173 T00171050 10033 20006 51012
Loading
Personal Weather Stations






























Interactive Weather Map New forecast layout! Learn more

10-Day Weather Forecast

Advertisements
Track Severe Weather on mobile